sensor_id;sensor_type;location;lat;lon;timestamp;P1;durP1;ratioP1;P2;durP2;ratioP2
61527;SDS011;47395;42.032;-8.634;2024-01-27T00:01:50;38.45;;;26.33;;
61527;SDS011;47395;42.032;-8.634;2024-01-27T00:03:51;41.90;;;27.27;;
61527;SDS011;47395;42.032;-8.634;2024-01-27T00:05:54;39.17;;;27.05;;
61527;SDS011;47395;42.032;-8.634;2024-01-27T00:07:55;41.08;;;26.08;;
61527;SDS011;47395;42.032;-8.634;2024-01-27T00:09:57;34.92;;;24.35;;
61527;SDS011;47395;42.032;-8.634;2024-01-27T00:11:59;30.90;;;22.98;;
61527;SDS011;47395;42.032;-8.634;2024-01-27T00:14:00;43.10;;;29.63;;
61527;SDS011;47395;42.032;-8.634;2024-01-27T00:16:01;54.70;;;33.97;;
61527;SDS011;47395;42.032;-8.634;2024-01-27T00:18:02;51.50;;;34.10;;
61527;SDS011;47395;42.032;-8.634;2024-01-27T00:20:03;57.97;;;37.17;;
61527;SDS011;47395;42.032;-8.634;2024-01-27T00:22:06;61.28;;;38.47;;
61527;SDS011;47395;42.032;-8.634;2024-01-27T00:24:07;59.33;;;39.58;;
61527;SDS011;47395;42.032;-8.634;2024-01-27T00:26:08;58.70;;;37.25;;
61527;SDS011;47395;42.032;-8.634;2024-01-27T00:28:09;50.33;;;32.35;;
61527;SDS011;47395;42.032;-8.634;2024-01-27T00:30:10;46.40;;;32.28;;
61527;SDS011;47395;42.032;-8.634;2024-01-27T00:32:12;47.83;;;30.05;;
61527;SDS011;47395;42.032;-8.634;2024-01-27T00:34:12;40.35;;;28.20;;
61527;SDS011;47395;42.032;-8.634;2024-01-27T00:36:13;43.45;;;29.23;;
61527;SDS011;47395;42.032;-8.634;2024-01-27T00:38:15;42.38;;;30.25;;
61527;SDS011;47395;42.032;-8.634;2024-01-27T00:40:16;45.90;;;29.27;;
61527;SDS011;47395;42.032;-8.634;2024-01-27T00:42:17;37.88;;;28.13;;
61527;SDS011;47395;42.032;-8.634;2024-01-27T00:44:19;45.55;;;29.33;;
61527;SDS011;47395;42.032;-8.634;2024-01-27T00:46:20;46.65;;;32.05;;
61527;SDS011;47395;42.032;-8.634;2024-01-27T00:48:21;45.35;;;30.15;;
61527;SDS011;47395;42.032;-8.634;2024-01-27T00:50:22;47.38;;;32.58;;
61527;SDS011;47395;42.032;-8.634;2024-01-27T00:52:24;53.22;;;33.88;;
61527;SDS011;47395;42.032;-8.634;2024-01-27T00:54:25;44.13;;;31.88;;
61527;SDS011;47395;42.032;-8.634;2024-01-27T00:56:26;45.03;;;30.67;;
61527;SDS011;47395;42.032;-8.634;2024-01-27T00:58:27;45.05;;;32.05;;
61527;SDS011;47395;42.032;-8.634;2024-01-27T01:00:28;48.75;;;32.25;;
61527;SDS011;47395;42.032;-8.634;2024-01-27T01:02:28;39.97;;;28.40;;
61527;SDS011;47395;42.032;-8.634;2024-01-27T01:04:30;41.92;;;30.17;;
61527;SDS011;47395;42.032;-8.634;2024-01-27T01:06:31;40.08;;;29.80;;
61527;SDS011;47395;42.032;-8.634;2024-01-27T01:08:32;42.67;;;30.42;;
61527;SDS011;47395;42.032;-8.634;2024-01-27T01:10:33;42.63;;;31.90;;
61527;SDS011;47395;42.032;-8.634;2024-01-27T01:12:34;41.53;;;28.67;;
61527;SDS011;47395;42.032;-8.634;2024-01-27T01:14:35;39.80;;;27.67;;
61527;SDS011;47395;42.032;-8.634;2024-01-27T01:16:36;39.83;;;28.20;;
61527;SDS011;47395;42.032;-8.634;2024-01-27T01:18:37;38.72;;;27.98;;
61527;SDS011;47395;42.032;-8.634;2024-01-27T01:20:38;46.97;;;25.80;;
61527;SDS011;47395;42.032;-8.634;2024-01-27T01:22:39;38.30;;;24.25;;
61527;SDS011;47395;42.032;-8.634;2024-01-27T01:24:39;36.55;;;23.50;;
61527;SDS011;47395;42.032;-8.634;2024-01-27T01:26:40;30.80;;;22.25;;
61527;SDS011;47395;42.032;-8.634;2024-01-27T01:28:41;33.20;;;22.63;;
61527;SDS011;47395;42.032;-8.634;2024-01-27T01:30:43;29.00;;;23.35;;
61527;SDS011;47395;42.032;-8.634;2024-01-27T01:32:44;35.10;;;22.70;;
61527;SDS011;47395;42.032;-8.634;2024-01-27T01:34:45;34.10;;;22.08;;
61527;SDS011;47395;42.032;-8.634;2024-01-27T01:36:48;32.60;;;22.55;;
61527;SDS011;47395;42.032;-8.634;2024-01-27T01:38:49;29.30;;;20.67;;
61527;SDS011;47395;42.032;-8.634;2024-01-27T01:40:50;31.75;;;22.63;;
61527;SDS011;47395;42.032;-8.634;2024-01-27T01:42:51;32.38;;;20.92;;
61527;SDS011;47395;42.032;-8.634;2024-01-27T01:44:52;27.90;;;21.48;;
61527;SDS011;47395;42.032;-8.634;2024-01-27T01:46:53;24.85;;;19.80;;
61527;SDS011;47395;42.032;-8.634;2024-01-27T01:48:54;27.20;;;19.02;;
61527;SDS011;47395;42.032;-8.634;2024-01-27T01:50:56;26.08;;;19.05;;
61527;SDS011;47395;42.032;-8.634;2024-01-27T01:52:57;24.02;;;18.73;;
61527;SDS011;47395;42.032;-8.634;2024-01-27T01:54:59;26.60;;;19.13;;
61527;SDS011;47395;42.032;-8.634;2024-01-27T01:57:00;30.58;;;21.10;;
61527;SDS011;47395;42.032;-8.634;2024-01-27T01:59:01;24.50;;;18.40;;
61527;SDS011;47395;42.032;-8.634;2024-01-27T02:01:03;24.13;;;19.05;;
61527;SDS011;47395;42.032;-8.634;2024-01-27T02:03:04;24.42;;;18.52;;
61527;SDS011;47395;42.032;-8.634;2024-01-27T02:05:06;27.60;;;18.85;;
61527;SDS011;47395;42.032;-8.634;2024-01-27T02:07:10;27.40;;;20.40;;
61527;SDS011;47395;42.032;-8.634;2024-01-27T02:09:11;27.25;;;20.23;;
61527;SDS011;47395;42.032;-8.634;2024-01-27T02:11:12;27.70;;;21.52;;
61527;SDS011;47395;42.032;-8.634;2024-01-27T02:13:16;31.17;;;21.58;;
61527;SDS011;47395;42.032;-8.634;2024-01-27T02:15:21;30.88;;;20.85;;
61527;SDS011;47395;42.032;-8.634;2024-01-27T02:17:22;25.80;;;20.02;;
61527;SDS011;47395;42.032;-8.634;2024-01-27T02:19:23;26.52;;;18.42;;
61527;SDS011;47395;42.032;-8.634;2024-01-27T02:21:24;24.63;;;18.30;;
61527;SDS011;47395;42.032;-8.634;2024-01-27T02:23:25;26.10;;;19.38;;
61527;SDS011;47395;42.032;-8.634;2024-01-27T02:25:26;32.95;;;20.75;;
61527;SDS011;47395;42.032;-8.634;2024-01-27T02:27:27;28.40;;;20.45;;
61527;SDS011;47395;42.032;-8.634;2024-01-27T02:29:28;29.92;;;20.85;;
61527;SDS011;47395;42.032;-8.634;2024-01-27T02:31:29;30.05;;;21.02;;
61527;SDS011;47395;42.032;-8.634;2024-01-27T02:33:30;30.90;;;21.27;;
61527;SDS011;47395;42.032;-8.634;2024-01-27T02:35:31;31.73;;;22.52;;
61527;SDS011;47395;42.032;-8.634;2024-01-27T02:37:32;29.88;;;21.33;;
61527;SDS011;47395;42.032;-8.634;2024-01-27T02:39:33;28.40;;;20.98;;
61527;SDS011;47395;42.032;-8.634;2024-01-27T02:41:34;28.00;;;20.13;;
61527;SDS011;47395;42.032;-8.634;2024-01-27T02:43:39;30.25;;;20.67;;
61527;SDS011;47395;42.032;-8.634;2024-01-27T02:45:40;29.70;;;21.85;;
61527;SDS011;47395;42.032;-8.634;2024-01-27T02:47:41;32.80;;;21.73;;
61527;SDS011;47395;42.032;-8.634;2024-01-27T02:49:42;28.42;;;21.40;;
61527;SDS011;47395;42.032;-8.634;2024-01-27T02:51:43;30.27;;;20.55;;
61527;SDS011;47395;42.032;-8.634;2024-01-27T02:53:44;24.13;;;19.35;;
61527;SDS011;47395;42.032;-8.634;2024-01-27T02:55:45;30.30;;;19.65;;
61527;SDS011;47395;42.032;-8.634;2024-01-27T02:57:46;29.08;;;18.95;;
61527;SDS011;47395;42.032;-8.634;2024-01-27T02:59:47;27.83;;;19.05;;
61527;SDS011;47395;42.032;-8.634;2024-01-27T03:01:48;24.83;;;18.85;;
61527;SDS011;47395;42.032;-8.634;2024-01-27T03:03:49;25.00;;;18.77;;
61527;SDS011;47395;42.032;-8.634;2024-01-27T03:05:50;21.17;;;18.55;;
61527;SDS011;47395;42.032;-8.634;2024-01-27T03:07:51;25.67;;;18.55;;
61527;SDS011;47395;42.032;-8.634;2024-01-27T03:09:52;26.88;;;18.08;;
61527;SDS011;47395;42.032;-8.634;2024-01-27T03:11:52;24.33;;;18.25;;
61527;SDS011;47395;42.032;-8.634;2024-01-27T03:13:53;23.67;;;18.45;;
61527;SDS011;47395;42.032;-8.634;2024-01-27T03:15:54;24.80;;;18.15;;
61527;SDS011;47395;42.032;-8.634;2024-01-27T03:17:56;24.25;;;17.70;;
61527;SDS011;47395;42.032;-8.634;2024-01-27T03:19:57;19.00;;;16.50;;
61527;SDS011;47395;42.032;-8.634;2024-01-27T03:21:58;21.55;;;16.33;;
61527;SDS011;47395;42.032;-8.634;2024-01-27T03:26:01;23.63;;;17.38;;
61527;SDS011;47395;42.032;-8.634;2024-01-27T03:28:02;24.88;;;19.00;;
61527;SDS011;47395;42.032;-8.634;2024-01-27T03:30:04;24.95;;;19.52;;
61527;SDS011;47395;42.032;-8.634;2024-01-27T03:32:06;22.88;;;19.13;;
61527;SDS011;47395;42.032;-8.634;2024-01-27T03:34:07;22.85;;;18.25;;
61527;SDS011;47395;42.032;-8.634;2024-01-27T03:36:11;28.75;;;17.92;;
61527;SDS011;47395;42.032;-8.634;2024-01-27T03:38:12;23.65;;;16.40;;
61527;SDS011;47395;42.032;-8.634;2024-01-27T03:40:13;23.85;;;16.63;;
61527;SDS011;47395;42.032;-8.634;2024-01-27T03:42:14;26.23;;;18.13;;
61527;SDS011;47395;42.032;-8.634;2024-01-27T03:44:15;24.00;;;19.10;;
61527;SDS011;47395;42.032;-8.634;2024-01-27T03:46:16;25.15;;;18.75;;
61527;SDS011;47395;42.032;-8.634;2024-01-27T03:48:18;22.77;;;17.45;;
61527;SDS011;47395;42.032;-8.634;2024-01-27T03:50:19;21.38;;;17.33;;
61527;SDS011;47395;42.032;-8.634;2024-01-27T03:52:19;22.85;;;17.95;;
61527;SDS011;47395;42.032;-8.634;2024-01-27T03:54:20;26.13;;;18.23;;
61527;SDS011;47395;42.032;-8.634;2024-01-27T03:56:21;27.75;;;18.83;;
61527;SDS011;47395;42.032;-8.634;2024-01-27T03:58:22;24.23;;;18.65;;
61527;SDS011;47395;42.032;-8.634;2024-01-27T04:00:24;22.63;;;17.27;;
61527;SDS011;47395;42.032;-8.634;2024-01-27T04:02:25;22.02;;;16.90;;
61527;SDS011;47395;42.032;-8.634;2024-01-27T04:04:26;20.92;;;16.23;;
61527;SDS011;47395;42.032;-8.634;2024-01-27T04:06:27;22.48;;;16.50;;
61527;SDS011;47395;42.032;-8.634;2024-01-27T04:08:30;21.70;;;15.70;;
61527;SDS011;47395;42.032;-8.634;2024-01-27T04:10:31;22.77;;;17.00;;
61527;SDS011;47395;42.032;-8.634;2024-01-27T04:12:32;22.73;;;15.90;;
61527;SDS011;47395;42.032;-8.634;2024-01-27T04:14:33;18.30;;;14.77;;
61527;SDS011;47395;42.032;-8.634;2024-01-27T04:16:34;17.58;;;15.23;;
61527;SDS011;47395;42.032;-8.634;2024-01-27T04:18:35;18.95;;;15.55;;
61527;SDS011;47395;42.032;-8.634;2024-01-27T04:20:38;16.40;;;13.98;;
61527;SDS011;47395;42.032;-8.634;2024-01-27T04:22:40;16.20;;;13.48;;
61527;SDS011;47395;42.032;-8.634;2024-01-27T04:24:41;16.67;;;14.05;;
61527;SDS011;47395;42.032;-8.634;2024-01-27T04:26:41;20.73;;;14.50;;
61527;SDS011;47395;42.032;-8.634;2024-01-27T04:28:43;15.30;;;13.65;;
61527;SDS011;47395;42.032;-8.634;2024-01-27T04:30:45;22.00;;;14.68;;
61527;SDS011;47395;42.032;-8.634;2024-01-27T04:32:46;19.27;;;13.98;;
61527;SDS011;47395;42.032;-8.634;2024-01-27T04:34:49;19.20;;;14.50;;
61527;SDS011;47395;42.032;-8.634;2024-01-27T04:36:50;16.15;;;14.40;;
61527;SDS011;47395;42.032;-8.634;2024-01-27T04:38:52;15.30;;;12.82;;
61527;SDS011;47395;42.032;-8.634;2024-01-27T04:40:53;17.88;;;14.10;;
61527;SDS011;47395;42.032;-8.634;2024-01-27T04:42:54;16.85;;;13.60;;
61527;SDS011;47395;42.032;-8.634;2024-01-27T04:44:55;17.45;;;13.98;;
61527;SDS011;47395;42.032;-8.634;2024-01-27T04:46:56;17.98;;;13.68;;
61527;SDS011;47395;42.032;-8.634;2024-01-27T04:48:57;17.40;;;13.25;;
61527;SDS011;47395;42.032;-8.634;2024-01-27T04:50:58;19.17;;;13.40;;
61527;SDS011;47395;42.032;-8.634;2024-01-27T04:52:59;14.18;;;12.63;;
61527;SDS011;47395;42.032;-8.634;2024-01-27T04:55:01;19.67;;;14.15;;
61527;SDS011;47395;42.032;-8.634;2024-01-27T04:57:03;18.60;;;13.32;;
61527;SDS011;47395;42.032;-8.634;2024-01-27T04:59:05;17.65;;;12.80;;
61527;SDS011;47395;42.032;-8.634;2024-01-27T05:01:06;18.42;;;13.30;;
61527;SDS011;47395;42.032;-8.634;2024-01-27T05:07:28;15.07;;;13.48;;
61527;SDS011;47395;42.032;-8.634;2024-01-27T05:09:29;18.35;;;14.43;;
61527;SDS011;47395;42.032;-8.634;2024-01-27T05:11:31;16.50;;;13.82;;
61527;SDS011;47395;42.032;-8.634;2024-01-27T05:13:33;17.20;;;14.10;;
61527;SDS011;47395;42.032;-8.634;2024-01-27T05:15:34;20.70;;;13.50;;
61527;SDS011;47395;42.032;-8.634;2024-01-27T05:17:35;16.77;;;13.70;;
61527;SDS011;47395;42.032;-8.634;2024-01-27T05:19:37;18.20;;;14.45;;
61527;SDS011;47395;42.032;-8.634;2024-01-27T05:21:39;18.85;;;14.18;;
61527;SDS011;47395;42.032;-8.634;2024-01-27T05:23:42;17.55;;;13.75;;
61527;SDS011;47395;42.032;-8.634;2024-01-27T05:25:42;19.83;;;14.98;;
61527;SDS011;47395;42.032;-8.634;2024-01-27T05:27:44;18.50;;;15.07;;
61527;SDS011;47395;42.032;-8.634;2024-01-27T05:29:45;19.17;;;14.85;;
61527;SDS011;47395;42.032;-8.634;2024-01-27T05:31:46;17.98;;;14.88;;
61527;SDS011;47395;42.032;-8.634;2024-01-27T05:33:47;16.75;;;13.82;;
61527;SDS011;47395;42.032;-8.634;2024-01-27T05:35:48;15.55;;;13.10;;
61527;SDS011;47395;42.032;-8.634;2024-01-27T05:37:49;16.92;;;14.18;;
61527;SDS011;47395;42.032;-8.634;2024-01-27T05:39:51;18.75;;;14.65;;
61527;SDS011;47395;42.032;-8.634;2024-01-27T05:41:53;18.50;;;13.93;;
61527;SDS011;47395;42.032;-8.634;2024-01-27T05:43:54;18.58;;;15.27;;
61527;SDS011;47395;42.032;-8.634;2024-01-27T05:45:57;18.40;;;15.18;;
61527;SDS011;47395;42.032;-8.634;2024-01-27T05:47:58;18.58;;;14.43;;
61527;SDS011;47395;42.032;-8.634;2024-01-27T05:49:59;16.02;;;14.38;;
61527;SDS011;47395;42.032;-8.634;2024-01-27T05:52:00;15.35;;;13.57;;
61527;SDS011;47395;42.032;-8.634;2024-01-27T05:54:01;17.77;;;14.95;;
61527;SDS011;47395;42.032;-8.634;2024-01-27T05:56:02;17.77;;;14.63;;
61527;SDS011;47395;42.032;-8.634;2024-01-27T05:58:04;17.95;;;14.35;;
61527;SDS011;47395;42.032;-8.634;2024-01-27T06:00:05;17.08;;;14.93;;
61527;SDS011;47395;42.032;-8.634;2024-01-27T06:02:07;20.10;;;16.20;;
61527;SDS011;47395;42.032;-8.634;2024-01-27T06:04:10;21.27;;;16.25;;
61527;SDS011;47395;42.032;-8.634;2024-01-27T06:06:14;18.73;;;14.57;;
61527;SDS011;47395;42.032;-8.634;2024-01-27T06:08:15;18.65;;;15.80;;
61527;SDS011;47395;42.032;-8.634;2024-01-27T06:10:18;17.83;;;15.27;;
61527;SDS011;47395;42.032;-8.634;2024-01-27T06:12:19;19.20;;;14.65;;
61527;SDS011;47395;42.032;-8.634;2024-01-27T06:14:20;18.55;;;15.85;;
61527;SDS011;47395;42.032;-8.634;2024-01-27T06:16:21;19.50;;;14.40;;
61527;SDS011;47395;42.032;-8.634;2024-01-27T06:18:23;16.58;;;14.77;;
61527;SDS011;47395;42.032;-8.634;2024-01-27T06:20:24;18.38;;;14.35;;
61527;SDS011;47395;42.032;-8.634;2024-01-27T06:22:25;16.13;;;14.45;;
61527;SDS011;47395;42.032;-8.634;2024-01-27T06:24:26;19.42;;;14.63;;
61527;SDS011;47395;42.032;-8.634;2024-01-27T06:26:27;15.73;;;14.02;;
61527;SDS011;47395;42.032;-8.634;2024-01-27T06:28:28;20.85;;;15.35;;
61527;SDS011;47395;42.032;-8.634;2024-01-27T06:30:29;16.38;;;14.30;;
61527;SDS011;47395;42.032;-8.634;2024-01-27T06:32:30;42.90;;;14.55;;
61527;SDS011;47395;42.032;-8.634;2024-01-27T06:34:31;13.68;;;12.27;;
61527;SDS011;47395;42.032;-8.634;2024-01-27T06:36:33;18.25;;;14.70;;
61527;SDS011;47395;42.032;-8.634;2024-01-27T06:38:34;18.15;;;14.55;;
61527;SDS011;47395;42.032;-8.634;2024-01-27T06:40:35;16.42;;;14.63;;
61527;SDS011;47395;42.032;-8.634;2024-01-27T06:42:36;17.02;;;13.95;;
61527;SDS011;47395;42.032;-8.634;2024-01-27T06:44:37;17.15;;;13.98;;
61527;SDS011;47395;42.032;-8.634;2024-01-27T06:46:37;16.08;;;13.88;;
61527;SDS011;47395;42.032;-8.634;2024-01-27T06:48:38;15.98;;;13.68;;
61527;SDS011;47395;42.032;-8.634;2024-01-27T06:50:39;15.07;;;13.52;;
61527;SDS011;47395;42.032;-8.634;2024-01-27T06:52:40;14.65;;;13.15;;
61527;SDS011;47395;42.032;-8.634;2024-01-27T06:54:41;17.88;;;13.65;;
61527;SDS011;47395;42.032;-8.634;2024-01-27T06:56:44;16.70;;;14.30;;
61527;SDS011;47395;42.032;-8.634;2024-01-27T06:58:45;14.05;;;12.63;;
61527;SDS011;47395;42.032;-8.634;2024-01-27T07:00:46;13.75;;;11.82;;
61527;SDS011;47395;42.032;-8.634;2024-01-27T07:02:47;13.60;;;11.85;;
61527;SDS011;47395;42.032;-8.634;2024-01-27T07:04:48;17.80;;;13.13;;
61527;SDS011;47395;42.032;-8.634;2024-01-27T07:06:49;17.15;;;12.95;;
61527;SDS011;47395;42.032;-8.634;2024-01-27T07:08:50;15.35;;;12.27;;
61527;SDS011;47395;42.032;-8.634;2024-01-27T07:10:51;16.23;;;13.23;;
61527;SDS011;47395;42.032;-8.634;2024-01-27T07:12:52;15.40;;;12.88;;
61527;SDS011;47395;42.032;-8.634;2024-01-27T07:14:54;17.63;;;13.57;;
61527;SDS011;47395;42.032;-8.634;2024-01-27T07:17:00;15.30;;;12.90;;
61527;SDS011;47395;42.032;-8.634;2024-01-27T07:19:01;17.15;;;13.77;;
61527;SDS011;47395;42.032;-8.634;2024-01-27T07:21:02;14.98;;;13.25;;
61527;SDS011;47395;42.032;-8.634;2024-01-27T07:23:03;15.25;;;13.65;;
61527;SDS011;47395;42.032;-8.634;2024-01-27T07:25:04;16.70;;;13.23;;
61527;SDS011;47395;42.032;-8.634;2024-01-27T07:27:09;15.40;;;13.70;;
61527;SDS011;47395;42.032;-8.634;2024-01-27T07:29:12;20.10;;;14.10;;
61527;SDS011;47395;42.032;-8.634;2024-01-27T07:31:13;16.40;;;13.20;;
61527;SDS011;47395;42.032;-8.634;2024-01-27T07:33:15;14.52;;;13.02;;
61527;SDS011;47395;42.032;-8.634;2024-01-27T07:35:17;14.93;;;13.18;;
61527;SDS011;47395;42.032;-8.634;2024-01-27T07:37:18;14.15;;;12.68;;
61527;SDS011;47395;42.032;-8.634;2024-01-27T07:39:21;14.10;;;12.77;;
61527;SDS011;47395;42.032;-8.634;2024-01-27T07:41:22;17.33;;;13.30;;
61527;SDS011;47395;42.032;-8.634;2024-01-27T07:43:24;16.30;;;13.02;;
61527;SDS011;47395;42.032;-8.634;2024-01-27T07:45:27;13.63;;;12.25;;
61527;SDS011;47395;42.032;-8.634;2024-01-27T07:47:28;14.77;;;13.23;;
61527;SDS011;47395;42.032;-8.634;2024-01-27T07:49:29;12.98;;;11.73;;
61527;SDS011;47395;42.032;-8.634;2024-01-27T07:51:30;14.77;;;13.25;;
61527;SDS011;47395;42.032;-8.634;2024-01-27T07:53:33;15.50;;;12.85;;
61527;SDS011;47395;42.032;-8.634;2024-01-27T07:55:34;17.75;;;13.27;;
61527;SDS011;47395;42.032;-8.634;2024-01-27T07:57:35;17.40;;;14.10;;
61527;SDS011;47395;42.032;-8.634;2024-01-27T07:59:37;17.75;;;14.27;;
61527;SDS011;47395;42.032;-8.634;2024-01-27T08:01:38;15.40;;;13.52;;
61527;SDS011;47395;42.032;-8.634;2024-01-27T08:03:39;20.60;;;14.68;;
61527;SDS011;47395;42.032;-8.634;2024-01-27T08:05:40;15.18;;;13.25;;
61527;SDS011;47395;42.032;-8.634;2024-01-27T08:07:41;16.10;;;13.95;;
61527;SDS011;47395;42.032;-8.634;2024-01-27T08:09:42;18.65;;;14.35;;
61527;SDS011;47395;42.032;-8.634;2024-01-27T08:11:43;14.88;;;13.23;;
61527;SDS011;47395;42.032;-8.634;2024-01-27T08:13:45;16.17;;;14.35;;
61527;SDS011;47395;42.032;-8.634;2024-01-27T08:15:46;18.30;;;14.18;;
61527;SDS011;47395;42.032;-8.634;2024-01-27T08:17:47;17.33;;;14.70;;
61527;SDS011;47395;42.032;-8.634;2024-01-27T08:19:48;15.65;;;12.65;;
61527;SDS011;47395;42.032;-8.634;2024-01-27T08:21:49;15.07;;;13.55;;
61527;SDS011;47395;42.032;-8.634;2024-01-27T08:23:50;15.63;;;12.93;;
61527;SDS011;47395;42.032;-8.634;2024-01-27T08:25:51;16.38;;;14.32;;
61527;SDS011;47395;42.032;-8.634;2024-01-27T08:27:53;14.82;;;12.50;;
61527;SDS011;47395;42.032;-8.634;2024-01-27T08:29:55;16.60;;;12.88;;
61527;SDS011;47395;42.032;-8.634;2024-01-27T08:31:56;14.40;;;12.95;;
61527;SDS011;47395;42.032;-8.634;2024-01-27T08:33:57;17.77;;;12.70;;
61527;SDS011;47395;42.032;-8.634;2024-01-27T08:35:58;14.85;;;12.68;;
61527;SDS011;47395;42.032;-8.634;2024-01-27T08:37:59;14.07;;;12.57;;
61527;SDS011;47395;42.032;-8.634;2024-01-27T08:40:00;15.65;;;12.95;;
61527;SDS011;47395;42.032;-8.634;2024-01-27T08:42:01;15.68;;;10.88;;
61527;SDS011;47395;42.032;-8.634;2024-01-27T08:44:02;13.98;;;11.85;;
61527;SDS011;47395;42.032;-8.634;2024-01-27T08:46:03;13.30;;;11.38;;
61527;SDS011;47395;42.032;-8.634;2024-01-27T08:48:04;13.13;;;11.23;;
61527;SDS011;47395;42.032;-8.634;2024-01-27T08:50:06;15.75;;;11.52;;
61527;SDS011;47395;42.032;-8.634;2024-01-27T08:52:07;14.30;;;11.90;;
61527;SDS011;47395;42.032;-8.634;2024-01-27T08:54:08;13.88;;;12.23;;
61527;SDS011;47395;42.032;-8.634;2024-01-27T08:56:09;13.13;;;10.68;;
61527;SDS011;47395;42.032;-8.634;2024-01-27T08:58:10;14.43;;;11.10;;
61527;SDS011;47395;42.032;-8.634;2024-01-27T09:00:11;12.27;;;10.88;;
61527;SDS011;47395;42.032;-8.634;2024-01-27T09:02:13;14.10;;;10.38;;
61527;SDS011;47395;42.032;-8.634;2024-01-27T09:04:14;16.52;;;11.55;;
61527;SDS011;47395;42.032;-8.634;2024-01-27T09:06:15;13.35;;;11.88;;
61527;SDS011;47395;42.032;-8.634;2024-01-27T09:08:17;13.77;;;11.77;;
61527;SDS011;47395;42.032;-8.634;2024-01-27T09:10:17;14.65;;;11.93;;
61527;SDS011;47395;42.032;-8.634;2024-01-27T09:12:19;13.80;;;12.43;;
61527;SDS011;47395;42.032;-8.634;2024-01-27T09:14:22;15.85;;;13.15;;
61527;SDS011;47395;42.032;-8.634;2024-01-27T09:16:23;13.85;;;11.63;;
61527;SDS011;47395;42.032;-8.634;2024-01-27T09:18:24;12.30;;;11.15;;
61527;SDS011;47395;42.032;-8.634;2024-01-27T09:20:25;11.93;;;10.75;;
61527;SDS011;47395;42.032;-8.634;2024-01-27T09:22:26;13.35;;;10.43;;
61527;SDS011;47395;42.032;-8.634;2024-01-27T09:24:27;12.13;;;10.07;;
61527;SDS011;47395;42.032;-8.634;2024-01-27T09:26:28;11.15;;;9.95;;
61527;SDS011;47395;42.032;-8.634;2024-01-27T09:28:29;11.38;;;10.07;;
61527;SDS011;47395;42.032;-8.634;2024-01-27T09:30:30;14.93;;;11.02;;
61527;SDS011;47395;42.032;-8.634;2024-01-27T09:32:31;12.85;;;10.43;;
61527;SDS011;47395;42.032;-8.634;2024-01-27T09:34:32;11.05;;;9.95;;
61527;SDS011;47395;42.032;-8.634;2024-01-27T09:36:33;15.05;;;11.88;;
61527;SDS011;47395;42.032;-8.634;2024-01-27T09:38:34;16.38;;;14.45;;
61527;SDS011;47395;42.032;-8.634;2024-01-27T09:40:35;19.75;;;17.38;;
61527;SDS011;47395;42.032;-8.634;2024-01-27T09:42:37;20.33;;;17.20;;
61527;SDS011;47395;42.032;-8.634;2024-01-27T09:44:43;18.25;;;15.80;;
61527;SDS011;47395;42.032;-8.634;2024-01-27T09:46:47;25.60;;;17.17;;
61527;SDS011;47395;42.032;-8.634;2024-01-27T09:48:49;16.65;;;14.95;;
61527;SDS011;47395;42.032;-8.634;2024-01-27T09:50:50;14.20;;;12.80;;
61527;SDS011;47395;42.032;-8.634;2024-01-27T09:52:54;15.18;;;11.50;;
61527;SDS011;47395;42.032;-8.634;2024-01-27T09:54:55;10.32;;;9.32;;
61527;SDS011;47395;42.032;-8.634;2024-01-27T09:56:56;12.00;;;9.50;;
61527;SDS011;47395;42.032;-8.634;2024-01-27T09:58:58;10.02;;;8.93;;
61527;SDS011;47395;42.032;-8.634;2024-01-27T10:01:00;12.25;;;9.40;;
61527;SDS011;47395;42.032;-8.634;2024-01-27T10:03:01;13.15;;;9.93;;
61527;SDS011;47395;42.032;-8.634;2024-01-27T10:05:04;19.42;;;14.90;;
61527;SDS011;47395;42.032;-8.634;2024-01-27T10:07:07;31.02;;;18.80;;
61527;SDS011;47395;42.032;-8.634;2024-01-27T10:09:08;15.38;;;12.60;;
61527;SDS011;47395;42.032;-8.634;2024-01-27T10:11:13;12.38;;;10.75;;
61527;SDS011;47395;42.032;-8.634;2024-01-27T10:13:16;12.30;;;11.05;;
61527;SDS011;47395;42.032;-8.634;2024-01-27T10:15:26;15.27;;;12.68;;
61527;SDS011;47395;42.032;-8.634;2024-01-27T10:17:27;19.98;;;14.50;;
61527;SDS011;47395;42.032;-8.634;2024-01-27T10:19:32;18.45;;;14.57;;
61527;SDS011;47395;42.032;-8.634;2024-01-27T10:21:33;20.75;;;15.18;;
61527;SDS011;47395;42.032;-8.634;2024-01-27T10:23:38;28.35;;;19.88;;
61527;SDS011;47395;42.032;-8.634;2024-01-27T10:25:40;29.95;;;20.80;;
61527;SDS011;47395;42.032;-8.634;2024-01-27T10:27:41;29.52;;;21.85;;
61527;SDS011;47395;42.032;-8.634;2024-01-27T10:29:51;26.67;;;20.05;;
61527;SDS011;47395;42.032;-8.634;2024-01-27T10:31:55;43.80;;;29.33;;
61527;SDS011;47395;42.032;-8.634;2024-01-27T10:34:07;64.75;;;40.42;;
61527;SDS011;47395;42.032;-8.634;2024-01-27T10:36:15;92.13;;;55.50;;
61527;SDS011;47395;42.032;-8.634;2024-01-27T10:38:16;147.98;;;97.45;;
61527;SDS011;47395;42.032;-8.634;2024-01-27T10:40:17;138.32;;;93.43;;
61527;SDS011;47395;42.032;-8.634;2024-01-27T10:42:18;119.25;;;82.80;;
61527;SDS011;47395;42.032;-8.634;2024-01-27T10:44:20;115.57;;;79.40;;
61527;SDS011;47395;42.032;-8.634;2024-01-27T10:46:21;106.25;;;73.38;;
61527;SDS011;47395;42.032;-8.634;2024-01-27T10:48:22;87.78;;;59.63;;
61527;SDS011;47395;42.032;-8.634;2024-01-27T10:50:25;69.78;;;48.03;;
61527;SDS011;47395;42.032;-8.634;2024-01-27T10:52:32;49.53;;;38.45;;
61527;SDS011;47395;42.032;-8.634;2024-01-27T10:54:38;49.15;;;36.10;;
61527;SDS011;47395;42.032;-8.634;2024-01-27T10:56:40;37.80;;;30.13;;
61527;SDS011;47395;42.032;-8.634;2024-01-27T10:58:42;35.28;;;28.17;;
61527;SDS011;47395;42.032;-8.634;2024-01-27T11:00:47;36.60;;;27.33;;
61527;SDS011;47395;42.032;-8.634;2024-01-27T11:02:50;36.03;;;28.58;;
61527;SDS011;47395;42.032;-8.634;2024-01-27T11:04:55;33.15;;;25.35;;
61527;SDS011;47395;42.032;-8.634;2024-01-27T11:06:56;37.20;;;30.40;;
61527;SDS011;47395;42.032;-8.634;2024-01-27T11:08:58;37.95;;;30.40;;
61527;SDS011;47395;42.032;-8.634;2024-01-27T11:11:03;36.30;;;30.45;;
61527;SDS011;47395;42.032;-8.634;2024-01-27T11:13:04;38.45;;;30.00;;
61527;SDS011;47395;42.032;-8.634;2024-01-27T11:15:07;41.58;;;31.15;;
61527;SDS011;47395;42.032;-8.634;2024-01-27T11:17:08;36.10;;;29.23;;
61527;SDS011;47395;42.032;-8.634;2024-01-27T11:19:12;35.05;;;27.50;;
61527;SDS011;47395;42.032;-8.634;2024-01-27T11:21:14;32.00;;;26.38;;
61527;SDS011;47395;42.032;-8.634;2024-01-27T11:23:16;34.00;;;27.77;;
61527;SDS011;47395;42.032;-8.634;2024-01-27T11:25:18;36.47;;;28.10;;
61527;SDS011;47395;42.032;-8.634;2024-01-27T11:27:26;33.58;;;27.50;;
61527;SDS011;47395;42.032;-8.634;2024-01-27T11:29:29;36.47;;;30.00;;
61527;SDS011;47395;42.032;-8.634;2024-01-27T11:31:32;33.17;;;26.48;;
61527;SDS011;47395;42.032;-8.634;2024-01-27T11:33:33;38.85;;;29.27;;
61527;SDS011;47395;42.032;-8.634;2024-01-27T11:35:40;32.65;;;26.08;;
61527;SDS011;47395;42.032;-8.634;2024-01-27T11:37:41;37.38;;;28.40;;
61527;SDS011;47395;42.032;-8.634;2024-01-27T11:39:42;34.13;;;25.67;;
61527;SDS011;47395;42.032;-8.634;2024-01-27T11:41:43;35.90;;;26.40;;
61527;SDS011;47395;42.032;-8.634;2024-01-27T11:43:50;30.90;;;25.05;;
61527;SDS011;47395;42.032;-8.634;2024-01-27T11:45:58;33.60;;;26.33;;
61527;SDS011;47395;42.032;-8.634;2024-01-27T11:48:00;30.17;;;25.42;;